Etusivu
METAR-TAF:

METAR-TAF

Lentoasemat :

East London, Etelä-Afrikka

Leveyspiiri: 33-02S, Pituuspiiri: 027-50E, korkeus merenpinnasta: 125 m

Tämänhetkinen sää

Tämä raportti tehtiin 54 minuuttia sitten, kello 16.00 UTC
Tuuli 19 kn idästä/koillisesta puuskistuen 30 kn:hen
Lämpötila 21°C
Kosteus 69%
Ilmanpaine 1017 hPa
Näkyvyys 10 km tai enemmän
ei pilviä alle 1500 m:ssä eikä cumulonimbus-pilviä

METAR: FAEL 051600Z 06019G30KT CAVOK 21/15 Q1017

Aika: 18:54 (16:54 UTC)

Sääennuste

Tämä raportti tehtiin 7 tuntia ja 54 minuuttia sitten, kello 09.00 UTC
Ennuste voimassa 05. päivästä klo 10 UTC - 05. päivään klo 19 UTC
Tuuli 20 kn idästä/koillisesta
Näkyvyys 10 km tai enemmän
ei pilviä alle 1500 m:ssä eikä cumulonimbus-pilviä
Ajoittain
05. päivästä klo 12 UTC - 05. päivään klo 19 UTC
Tuuli 23 kn idästä/koillisesta puuskistuen 33 kn:hen

TAF: FAEL 050900Z 0510/0519 07020KT CAVOK TX24/0511Z TN20/0519Z TEMPO 0512/0519 07023G33KT

Säähavainnot ja -ennusteet yli 4000 lentoasemalta (METAR- ja TAF-raportit).

Käytössä olevat sääasemat on merkitty karttaan keltaisilla ja punaisilla pisteillä.

Aseta hiiri pisteen päälle nähdäksesi sääaseman nimen.

Klikkaa sitten nähdäksesi säähavainnot ja -ennusteet.

Kartan vaihtaminen: klikkaa mustalla rastilla varustettuja vihreitä pisteitä, niin voit zoomata sisään; viivalla varustettua vihreää pistettä, niin voit zoomata ulos tai vihreitä nuolia, niin pääset viereisille kartoille.


METAR-TAF: